Terminal Aerodrome Forecast
Issued by NWS

Home | Current Version | Previous Version | Text Only | Print | Product List | Glossary On
Versions: 1 2 3 4 5 6 7 8 9 10 11 12 13 14 15 16 17 18 19
000
FTUS43 KIND 161700
TAFBMG
TAF
KBMG 161737Z 1618/1718 03005KT P6SM BKN020
     FM162000 02003KT P6SM SCT025 BKN035
     FM170100 02002KT P6SM SCT040
     FM170900 00000KT 3SM BR SCT250
     FM171300 VRB03KT P6SM SCT035=

USA.gov is the U.S. government's official web portal to all federal, state and local government web resources and services.